Picacho, New Mexico
Current Conditions -  °F | °C
As of 8:51 PM on Thursday 27 Nov 2014 (Local Time) from KROW Reporting Station
Clear Clear  
Wind Chill:   Ceiling: Unl
Heat Index:   Visibility: 10mi
Dew Point: -2°   Wind: 6mph
Humidity: 70%   Direction: 240°WSW
Pressure: 30.27"   Gusts: NA
Location:  33.41°N, 105.01°W
Report Text: KROW 280351Z AUTO 24005KT 10SM CLR 03/M02 A3027 RMK AO2 SLP238 T00331017
Loading
Personal Weather Stations






























Interactive Weather Map New forecast layout! Learn more

10-Day Weather Forecast

Advertisements
Track Severe Weather on mobile